Time;durP1;ratioP1;P1;durP2;ratioP2;P2;SDS_P1;SDS_P2;PMS_P1;PMS_P2;Temp;Humidity;BMP_temperature;BMP_pressure;BME280_temperature;BME280_humidity;BME280_pressure;Samples;Min_cycle;Max_cycle;Signal;HPM_P1;HPM_P2
2023/05/28 00:01:09;;;;;;;17.00;9.33;;;14.00;99.90;;;;;;4959789;29;20454;-81
2023/05/28 00:03:37;;;;;;;16.33;9.40;;;14.00;99.90;;;;;;4960063;29;20458;-80
2023/05/28 00:06:06;;;;;;;12.90;8.80;;;14.00;99.90;;;;;;4960120;28;20482;-81
2023/05/28 00:08:35;;;;;;;12.80;9.10;;;13.90;99.90;;;;;;4960820;28;20439;-81
2023/05/28 00:11:03;;;;;;;20.53;10.10;;;14.00;99.90;;;;;;4960522;29;20455;-81
2023/05/28 00:13:35;;;;;;;14.87;9.03;;;13.90;99.90;;;;;;4958759;28;20505;-81
2023/05/28 00:16:03;;;;;;;17.47;8.90;;;13.90;99.90;;;;;;4958557;29;20477;-81
2023/05/28 00:18:32;;;;;;;15.90;9.23;;;13.90;99.90;;;;;;4960125;29;20469;-81
2023/05/28 00:21:01;;;;;;;12.57;8.77;;;13.80;99.90;;;;;;4960370;29;20446;-81
2023/05/28 00:23:29;;;;;;;17.40;9.57;;;13.80;99.90;;;;;;4958706;29;20455;-81
2023/05/28 00:25:57;;;;;;;15.90;9.50;;;13.80;99.90;;;;;;4959782;28;20987;-81
2023/05/28 00:28:26;;;;;;;14.77;8.20;;;13.80;99.90;;;;;;4958735;29;20462;-81
2023/05/28 00:30:56;;;;;;;14.07;8.77;;;13.80;99.90;;;;;;4958511;29;20541;-81
2023/05/28 00:33:25;;;;;;;13.10;9.00;;;13.70;99.90;;;;;;4957997;29;21015;-81
2023/05/28 00:35:55;;;;;;;11.10;7.60;;;13.70;99.90;;;;;;4958343;29;20475;-80
2023/05/28 00:38:24;;;;;;;12.43;8.43;;;13.70;99.90;;;;;;4958460;29;20952;-81
2023/05/28 00:40:54;;;;;;;15.60;9.30;;;13.60;99.90;;;;;;4957787;29;20486;-81
2023/05/28 00:43:23;;;;;;;13.63;9.07;;;13.60;99.90;;;;;;4958745;29;20439;-81
2023/05/28 00:45:51;;;;;;;16.30;9.00;;;13.50;99.90;;;;;;4959245;29;20869;-81
2023/05/28 00:48:21;;;;;;;14.17;9.13;;;13.50;99.90;;;;;;4959162;29;20435;-81
2023/05/28 00:50:50;;;;;;;11.87;8.60;;;13.50;99.90;;;;;;4960693;29;20442;-81
2023/05/28 00:53:19;;;;;;;11.67;8.67;;;13.40;99.90;;;;;;4960100;29;20466;-81
2023/05/28 00:55:49;;;;;;;14.67;9.13;;;13.40;99.90;;;;;;4960317;29;20470;-82
2023/05/28 00:58:19;;;;;;;17.80;9.00;;;13.40;99.90;;;;;;4961567;29;20441;-81
2023/05/28 01:00:47;;;;;;;14.00;9.40;;;13.40;99.90;;;;;;4961530;29;20466;-81
2023/05/28 01:03:16;;;;;;;17.77;10.13;;;13.40;99.90;;;;;;4960113;29;20458;-81
2023/05/28 01:05:47;;;;;;;15.10;9.50;;;13.30;99.90;;;;;;4959629;29;20490;-81
2023/05/28 01:08:16;;;;;;;15.53;9.67;;;13.30;99.90;;;;;;4959061;29;20453;-81
2023/05/28 01:10:45;;;;;;;16.00;9.77;;;13.30;99.90;;;;;;4958550;29;20455;-81
2023/05/28 01:13:13;;;;;;;17.50;8.57;;;13.30;99.90;;;;;;4958661;29;20648;-81
2023/05/28 01:15:42;;;;;;;13.13;8.87;;;13.20;99.90;;;;;;4960192;29;20809;-81
2023/05/28 01:18:11;;;;;;;13.33;9.27;;;13.20;99.90;;;;;;4962218;28;20490;-81
2023/05/28 01:20:40;;;;;;;14.23;10.20;;;13.20;99.90;;;;;;4962433;28;20489;-81
2023/05/28 01:23:17;;;;;;;15.80;9.30;;;13.10;99.90;;;;;;4962038;29;20505;-81
2023/05/28 01:25:51;;;;;;;14.57;9.07;;;13.10;99.90;;;;;;4962689;29;20485;-80
2023/05/28 01:28:20;;;;;;;14.10;9.53;;;13.10;99.90;;;;;;4961306;29;20954;-80
2023/05/28 01:30:49;;;;;;;16.50;9.90;;;13.00;99.90;;;;;;4961156;29;20451;-80
2023/05/28 01:33:18;;;;;;;13.93;9.37;;;13.00;99.90;;;;;;4961310;29;20522;-79
2023/05/28 01:35:47;;;;;;;14.53;8.90;;;13.00;99.90;;;;;;4961280;29;20477;-80
2023/05/28 01:38:17;;;;;;;15.13;9.87;;;12.90;99.90;;;;;;4961523;29;20461;-80
2023/05/28 01:40:49;;;;;;;17.77;10.20;;;12.90;99.90;;;;;;4961514;29;20456;-80
2023/05/28 01:43:18;;;;;;;19.63;10.60;;;12.90;99.90;;;;;;4961205;28;20940;-79
2023/05/28 01:45:47;;;;;;;16.53;9.97;;;12.80;99.90;;;;;;4962042;28;20536;-80
2023/05/28 01:48:16;;;;;;;17.27;10.80;;;12.80;99.90;;;;;;4961604;29;20956;-80
2023/05/28 01:50:44;;;;;;;15.60;9.30;;;12.80;99.90;;;;;;4960916;28;20457;-80
2023/05/28 01:53:13;;;;;;;15.57;9.67;;;12.80;99.90;;;;;;4961076;29;20454;-81
2023/05/28 01:55:41;;;;;;;13.57;9.07;;;12.70;99.90;;;;;;4960586;29;20470;-80
2023/05/28 01:58:11;;;;;;;14.33;8.97;;;12.70;99.90;;;;;;4960476;29;20466;-81
2023/05/28 02:00:45;;;;;;;13.30;9.43;;;12.70;99.90;;;;;;4960796;29;20952;-81
2023/05/28 02:03:13;;;;;;;10.90;8.50;;;12.70;99.90;;;;;;4961804;29;20817;-81
2023/05/28 02:05:41;;;;;;;13.23;9.53;;;12.60;99.90;;;;;;4962252;29;20486;-81
2023/05/28 02:08:10;;;;;;;15.57;9.63;;;12.60;99.90;;;;;;4961934;29;20522;-81
2023/05/28 02:10:38;;;;;;;12.90;8.50;;;12.60;99.90;;;;;;4961670;29;20478;-81
2023/05/28 02:13:06;;;;;;;14.80;8.97;;;12.60;99.90;;;;;;4962174;29;20451;-81
2023/05/28 02:15:36;;;;;;;12.10;8.87;;;12.50;99.90;;;;;;4961379;29;20471;-81
2023/05/28 02:18:04;;;;;;;13.30;9.60;;;12.50;99.90;;;;;;4961315;29;20822;-81
2023/05/28 02:20:32;;;;;;;14.97;9.70;;;12.50;99.90;;;;;;4961210;29;20570;-81
2023/05/28 02:23:01;;;;;;;15.63;9.50;;;12.40;99.90;;;;;;4961078;29;20462;-80
2023/05/28 02:25:29;;;;;;;17.50;10.10;;;12.40;99.90;;;;;;4960716;29;20482;-81
2023/05/28 02:27:58;;;;;;;16.00;9.83;;;12.40;99.90;;;;;;4960708;28;20829;-81
2023/05/28 02:30:26;;;;;;;17.10;10.27;;;12.40;99.90;;;;;;4960269;29;20529;-80
2023/05/28 02:32:56;;;;;;;15.93;9.97;;;12.40;99.90;;;;;;4960937;28;20840;-80
2023/05/28 02:35:24;;;;;;;13.40;9.80;;;12.30;99.90;;;;;;4960485;29;20478;-81
2023/05/28 02:37:53;;;;;;;17.53;10.23;;;12.30;99.90;;;;;;4959683;29;20462;-80
2023/05/28 02:40:21;;;;;;;17.27;10.13;;;12.30;99.90;;;;;;4960476;29;21031;-80
2023/05/28 02:42:49;;;;;;;16.50;11.27;;;12.20;99.90;;;;;;4960269;28;20451;-80
2023/05/28 02:45:18;;;;;;;18.97;10.83;;;12.20;99.90;;;;;;4960141;28;20454;-80
2023/05/28 02:47:47;;;;;;;15.17;10.37;;;12.10;99.90;;;;;;4962268;29;20447;-80
2023/05/28 02:50:16;;;;;;;14.67;11.00;;;12.10;99.90;;;;;;4962371;29;20454;-80
2023/05/28 02:52:59;;;;;;;14.47;10.20;;;12.00;99.90;;;;;;4962815;29;20450;-80
2023/05/28 02:55:28;;;;;;;20.17;11.27;;;12.00;99.90;;;;;;4963926;28;20486;-80
2023/05/28 02:57:56;;;;;;;12.30;9.77;;;12.00;99.90;;;;;;4961976;28;20458;-81
2023/05/28 03:00:26;;;;;;;16.63;10.37;;;12.00;99.90;;;;;;4961965;29;20517;-80
2023/05/28 03:02:57;;;;;;;14.67;9.53;;;11.90;99.90;;;;;;4962207;29;20801;-80
2023/05/28 03:05:28;;;;;;;14.47;9.93;;;11.90;99.90;;;;;;4961572;29;20508;-80
2023/05/28 03:07:56;;;;;;;15.53;9.90;;;11.90;99.90;;;;;;4961497;29;20470;-80
2023/05/28 03:10:24;;;;;;;13.27;9.63;;;11.90;99.90;;;;;;4961242;29;20478;-80
2023/05/28 03:12:52;;;;;;;16.27;10.37;;;11.90;99.90;;;;;;4960308;28;20458;-80
2023/05/28 03:15:21;;;;;;;13.67;9.50;;;11.90;99.90;;;;;;4960402;28;20456;-80
2023/05/28 03:17:49;;;;;;;17.67;10.10;;;11.90;99.90;;;;;;4960423;28;20522;-80
2023/05/28 03:20:17;;;;;;;12.27;8.90;;;11.80;99.90;;;;;;4960433;28;20454;-81
2023/05/28 03:22:50;;;;;;;13.13;9.77;;;11.80;99.90;;;;;;4959949;29;20548;-80
2023/05/28 03:25:20;;;;;;;14.53;9.30;;;11.80;99.90;;;;;;4960741;28;20459;-81
2023/05/28 03:27:49;;;;;;;12.83;9.43;;;11.80;99.90;;;;;;4960888;28;20506;-80
2023/05/28 03:30:17;;;;;;;12.27;8.80;;;11.80;99.90;;;;;;4960819;29;20455;-80
2023/05/28 03:32:53;;;;;;;14.50;10.13;;;11.80;99.90;;;;;;4960818;29;21022;-80
2023/05/28 03:35:22;;;;;;;11.60;9.60;;;11.70;99.90;;;;;;4961124;28;20960;-80
2023/05/28 03:37:52;;;;;;;14.93;10.50;;;11.70;99.90;;;;;;4961009;29;20455;-80
2023/05/28 03:40:21;;;;;;;13.33;9.40;;;11.70;99.90;;;;;;4959230;28;20445;-80
2023/05/28 03:42:49;;;;;;;16.73;10.77;;;11.70;99.90;;;;;;4959904;29;20454;-80
2023/05/28 03:45:18;;;;;;;15.60;9.50;;;11.70;99.90;;;;;;4959608;29;20450;-80
2023/05/28 03:47:46;;;;;;;14.00;10.60;;;11.70;99.90;;;;;;4959588;29;20510;-80
2023/05/28 03:50:15;;;;;;;13.57;10.57;;;11.70;99.90;;;;;;4959615;29;20833;-80
2023/05/28 03:52:43;;;;;;;14.00;10.23;;;11.70;99.90;;;;;;4959285;29;20853;-80
2023/05/28 03:55:13;;;;;;;14.00;10.47;;;11.70;99.90;;;;;;4959549;29;20474;-80
2023/05/28 03:57:42;;;;;;;17.20;10.70;;;11.70;99.90;;;;;;4959882;29;20509;-80
2023/05/28 04:00:12;;;;;;;21.20;11.80;;;11.70;99.90;;;;;;4959629;28;20553;-80
2023/05/28 04:02:44;;;;;;;18.60;10.80;;;11.70;99.90;;;;;;4961343;29;20442;-80
2023/05/28 04:05:12;;;;;;;15.00;11.13;;;11.70;99.90;;;;;;4959004;28;20897;-80
2023/05/28 04:07:41;;;;;;;18.13;12.20;;;11.70;99.90;;;;;;4959158;29;20477;-80
2023/05/28 04:10:10;;;;;;;15.47;11.40;;;11.70;99.90;;;;;;4959360;28;20454;-80
2023/05/28 04:12:40;;;;;;;16.87;11.43;;;11.70;99.90;;;;;;4959566;29;20482;-80
2023/05/28 04:15:09;;;;;;;18.87;12.37;;;11.70;99.90;;;;;;4959259;29;20453;-80
2023/05/28 04:17:38;;;;;;;16.43;11.73;;;11.70;99.90;;;;;;4959637;29;20457;-80
2023/05/28 04:20:10;;;;;;;15.10;10.90;;;11.70;99.90;;;;;;4958704;29;20461;-80
2023/05/28 04:22:39;;;;;;;17.77;12.43;;;11.70;99.90;;;;;;4958565;29;20454;-80
2023/05/28 04:25:08;;;;;;;14.40;11.30;;;11.80;99.90;;;;;;4958685;28;20454;-80
2023/05/28 04:27:37;;;;;;;14.47;10.60;;;11.80;99.90;;;;;;4959223;29;20502;-80
2023/05/28 04:30:09;;;;;;;14.50;11.80;;;11.80;99.90;;;;;;4959081;28;20452;-80
2023/05/28 04:32:39;;;;;;;12.13;10.90;;;11.80;99.90;;;;;;4959031;28;20466;-80
2023/05/28 04:35:09;;;;;;;15.13;11.30;;;11.80;99.90;;;;;;4960030;28;20553;-80
2023/05/28 04:37:39;;;;;;;13.67;11.33;;;11.90;99.90;;;;;;4959521;28;20449;-80
2023/05/28 04:40:11;;;;;;;17.47;11.90;;;11.90;99.90;;;;;;4959912;28;20423;-80
2023/05/28 04:42:41;;;;;;;16.20;11.77;;;11.90;99.90;;;;;;4959031;28;20450;-80
2023/05/28 04:45:11;;;;;;;23.27;12.03;;;11.90;99.90;;;;;;4960353;28;20513;-80
2023/05/28 04:47:44;;;;;;;20.33;12.10;;;11.90;99.90;;;;;;4961098;29;20478;-80
2023/05/28 04:50:13;;;;;;;12.40;10.80;;;12.00;99.90;;;;;;4961683;28;20435;-80
2023/05/28 04:52:41;;;;;;;16.97;11.87;;;12.00;99.90;;;;;;4960336;28;20462;-80
2023/05/28 04:55:09;;;;;;;15.63;11.40;;;12.00;99.90;;;;;;4959457;29;20798;-80
2023/05/28 04:57:38;;;;;;;14.57;11.80;;;12.00;99.90;;;;;;4959664;29;20481;-80
2023/05/28 05:00:12;;;;;;;14.83;11.40;;;12.10;99.90;;;;;;4959408;29;20446;-80
2023/05/28 05:02:42;;;;;;;14.10;11.67;;;12.10;99.90;;;;;;4959650;29;20451;-80
2023/05/28 05:05:11;;;;;;;18.90;11.63;;;12.10;99.90;;;;;;4958948;28;20454;-80
2023/05/28 05:07:40;;;;;;;17.60;12.00;;;12.20;99.90;;;;;;4959203;28;20845;-80
2023/05/28 05:10:10;;;;;;;13.77;11.40;;;12.20;99.90;;;;;;4959097;29;20875;-80
2023/05/28 05:12:39;;;;;;;17.50;11.70;;;12.30;99.90;;;;;;4959826;28;20466;-79
2023/05/28 05:15:09;;;;;;;18.17;12.50;;;12.30;99.90;;;;;;4958747;28;20466;-80
2023/05/28 05:17:37;;;;;;;20.57;12.07;;;12.30;99.90;;;;;;4958667;28;20450;-80
2023/05/28 05:20:09;;;;;;;17.87;12.13;;;12.40;99.90;;;;;;4958923;29;20561;-80
2023/05/28 05:22:38;;;;;;;16.07;11.80;;;12.40;99.90;;;;;;4958966;28;20462;-80
2023/05/28 05:25:07;;;;;;;16.50;11.83;;;12.50;99.90;;;;;;4960236;28;20435;-80
2023/05/28 05:27:36;;;;;;;16.37;11.80;;;12.50;99.90;;;;;;4959392;29;20466;-80
2023/05/28 05:30:06;;;;;;;18.97;12.00;;;12.60;99.90;;;;;;4959648;29;20442;-80
2023/05/28 05:32:35;;;;;;;18.47;12.77;;;12.60;99.90;;;;;;4960145;29;20466;-80
2023/05/28 05:35:03;;;;;;;16.67;11.83;;;12.60;99.90;;;;;;4959322;29;20457;-80
2023/05/28 05:38:02;;;;;;;18.70;12.63;;;12.70;99.90;;;;;;4941236;28;20467;-80
2023/05/28 05:40:50;;;;;;;17.87;11.50;;;12.70;99.90;;;;;;4959348;29;20470;-80
2023/05/28 05:43:34;;;;;;;14.63;11.40;;;12.70;99.90;;;;;;4960015;28;20448;-80
2023/05/28 05:46:03;;;;;;;20.77;13.80;;;12.80;99.90;;;;;;4963099;28;20490;-79
2023/05/28 05:48:31;;;;;;;21.47;12.93;;;12.80;99.90;;;;;;4960750;29;20477;-80
2023/05/28 05:51:01;;;;;;;16.00;12.20;;;12.80;99.90;;;;;;4961804;28;20967;-80
2023/05/28 05:53:30;;;;;;;20.80;13.33;;;12.90;99.90;;;;;;4960778;28;20461;-80
2023/05/28 05:55:59;;;;;;;17.17;11.83;;;12.90;99.90;;;;;;4960270;29;20537;-80
2023/05/28 05:58:31;;;;;;;16.87;11.73;;;13.00;99.90;;;;;;4960272;28;20479;-80
2023/05/28 06:00:59;;;;;;;15.53;12.60;;;13.00;99.90;;;;;;4960007;29;20525;-80
2023/05/28 06:03:28;;;;;;;20.33;12.13;;;13.10;99.90;;;;;;4960419;28;20477;-80
2023/05/28 06:06:00;;;;;;;18.03;13.37;;;13.30;99.90;;;;;;4964763;28;20466;-80
2023/05/28 06:08:48;;;;;;;19.23;11.93;;;13.40;99.90;;;;;;4964317;29;20564;-80
2023/05/28 06:11:23;;;;;;;19.17;13.33;;;13.50;99.90;;;;;;4962626;28;20818;-80
2023/05/28 06:13:52;;;;;;;16.97;11.70;;;13.70;99.90;;;;;;4962295;28;20823;-80
2023/05/28 06:16:21;;;;;;;19.07;12.07;;;13.80;99.90;;;;;;4963361;28;20462;-79
2023/05/28 06:18:49;;;;;;;16.23;11.60;;;13.80;99.90;;;;;;4961471;29;20447;-79
2023/05/28 06:21:18;;;;;;;17.53;11.53;;;13.80;99.90;;;;;;4962414;29;20442;-79
2023/05/28 06:23:48;;;;;;;17.00;10.50;;;13.90;99.90;;;;;;4962054;28;21005;-80
2023/05/28 06:26:16;;;;;;;17.30;12.13;;;13.90;99.90;;;;;;4961909;29;20470;-79
2023/05/28 06:28:44;;;;;;;15.83;11.07;;;13.90;99.90;;;;;;4961949;29;20448;-80
2023/05/28 06:31:14;;;;;;;19.27;11.33;;;13.90;99.90;;;;;;4963752;29;20457;-81
2023/05/28 06:33:42;;;;;;;18.30;11.07;;;13.90;99.90;;;;;;4964580;28;20450;-81
2023/05/28 06:36:11;;;;;;;17.23;11.80;;;13.90;99.90;;;;;;4964158;28;20467;-80
2023/05/28 06:38:40;;;;;;;16.83;12.00;;;13.90;99.90;;;;;;4963287;29;20447;-80
2023/05/28 06:41:13;;;;;;;17.50;11.60;;;13.90;99.90;;;;;;4963473;28;20477;-80
2023/05/28 06:43:46;;;;;;;16.37;11.70;;;13.90;99.90;;;;;;4962605;29;20535;-80
2023/05/28 06:46:23;;;;;;;14.70;11.70;;;13.90;99.90;;;;;;4963141;29;20486;-81
2023/05/28 06:48:51;;;;;;;17.10;11.80;;;14.00;99.90;;;;;;4963966;28;20481;-80
2023/05/28 06:51:20;;;;;;;14.27;10.90;;;14.00;99.90;;;;;;4966492;29;20443;-80
2023/05/28 06:53:48;;;;;;;15.97;11.13;;;14.10;99.90;;;;;;4963124;28;20459;-81
2023/05/28 06:56:22;;;;;;;17.83;11.70;;;14.20;99.90;;;;;;4962256;29;20493;-80
2023/05/28 06:59:10;;;;;;;17.80;12.10;;;14.40;99.90;;;;;;4963104;29;20417;-80
2023/05/28 07:01:46;;;;;;;14.40;12.03;;;14.60;99.90;;;;;;4960600;28;20454;-80
2023/05/28 07:04:34;;;;;;;15.77;11.50;;;14.80;99.90;;;;;;4961480;29;20530;-80
2023/05/28 07:07:11;;;;;;;18.67;11.90;;;14.90;99.90;;;;;;4962926;29;20553;-81
2023/05/28 07:09:41;;;;;;;22.87;11.73;;;15.00;99.90;;;;;;4962686;28;20462;-80
2023/05/28 07:12:10;;;;;;;16.00;12.50;;;15.00;99.90;;;;;;4960700;29;20458;-79
2023/05/28 07:14:44;;;;;;;18.83;12.50;;;15.20;99.90;;;;;;4961417;28;20999;-79
2023/05/28 07:17:13;;;;;;;16.57;12.03;;;15.30;99.90;;;;;;4959180;29;20468;-79
2023/05/28 07:19:43;;;;;;;20.60;12.07;;;15.40;99.90;;;;;;4960089;28;20796;-79
2023/05/28 07:22:12;;;;;;;16.80;11.13;;;15.40;99.90;;;;;;4959807;29;20457;-79
2023/05/28 07:24:41;;;;;;;17.87;11.53;;;15.50;99.90;;;;;;4959869;29;20486;-79
2023/05/28 07:27:11;;;;;;;16.97;11.77;;;15.60;99.90;;;;;;4958955;29;20980;-79
2023/05/28 07:29:40;;;;;;;16.30;11.77;;;15.60;99.90;;;;;;4961610;28;20441;-79
2023/05/28 07:32:12;;;;;;;13.83;11.40;;;15.70;99.90;;;;;;4959867;28;20447;-79
2023/05/28 07:34:43;;;;;;;19.30;11.90;;;15.90;99.90;;;;;;4960948;28;20472;-79
2023/05/28 07:37:13;;;;;;;16.43;10.93;;;16.00;99.90;;;;;;4959368;29;20562;-79
2023/05/28 07:39:42;;;;;;;17.20;11.80;;;16.10;99.90;;;;;;4960015;28;20425;-79
2023/05/28 07:42:12;;;;;;;18.97;13.23;;;16.30;99.90;;;;;;4957904;29;20956;-79
2023/05/28 07:44:41;;;;;;;17.50;11.07;;;16.30;99.90;;;;;;4958430;29;20429;-79
2023/05/28 07:47:10;;;;;;;17.97;12.13;;;16.40;99.90;;;;;;4957119;28;21014;-79
2023/05/28 07:49:56;;;;;;;17.43;11.50;;;16.50;99.90;;;;;;4961838;29;20485;-79
2023/05/28 07:52:37;;;;;;;21.03;10.67;;;16.60;99.90;;;;;;4959456;29;20509;-79
2023/05/28 07:55:07;;;;;;;16.20;10.50;;;16.70;99.90;;;;;;4958615;28;21013;-81
2023/05/28 07:57:37;;;;;;;15.43;9.80;;;16.80;99.90;;;;;;4959818;29;20429;-80
2023/05/28 08:00:12;;;;;;;13.57;8.73;;;16.90;99.90;;;;;;4959316;29;20455;-81
2023/05/28 08:02:53;;;;;;;14.47;10.33;;;17.00;99.90;;;;;;4960775;29;20393;-80
2023/05/28 08:05:33;;;;;;;16.60;9.77;;;17.10;99.90;;;;;;4959245;29;20864;-80
2023/05/28 08:08:02;;;;;;;15.40;9.10;;;17.20;99.90;;;;;;4959489;29;20462;-81
2023/05/28 08:10:31;;;;;;;13.73;10.07;;;17.30;99.90;;;;;;4959549;29;20480;-81
2023/05/28 08:13:01;;;;;;;17.90;10.10;;;17.50;99.90;;;;;;4958370;28;20504;-80
2023/05/28 08:15:29;;;;;;;15.00;9.93;;;17.60;99.90;;;;;;4958195;29;20880;-80
2023/05/28 08:17:58;;;;;;;20.80;10.77;;;17.70;99.90;;;;;;4957325;29;20507;-79
2023/05/28 08:20:27;;;;;;;14.90;9.60;;;17.90;99.90;;;;;;4959502;29;20446;-80
2023/05/28 08:23:07;;;;;;;12.93;9.13;;;18.00;99.90;;;;;;4960009;29;20477;-80
2023/05/28 08:25:35;;;;;;;14.40;9.27;;;18.10;99.90;;;;;;4958817;28;20540;-80
2023/05/28 08:28:13;;;;;;;15.17;8.57;;;18.20;99.90;;;;;;4960172;29;20781;-79
2023/05/28 08:30:42;;;;;;;14.60;9.57;;;18.30;99.90;;;;;;4959351;29;20471;-79
2023/05/28 08:33:30;;;;;;;16.53;9.60;;;18.40;99.90;;;;;;4960173;29;20413;-79
2023/05/28 08:36:01;;;;;;;15.50;9.80;;;18.50;99.90;;;;;;4957439;29;20506;-79
2023/05/28 08:38:30;;;;;;;16.20;9.47;;;18.60;99.90;;;;;;4956243;29;20478;-79
2023/05/28 08:41:00;;;;;;;13.93;8.47;;;18.70;99.90;;;;;;4956091;29;20465;-79
2023/05/28 08:43:32;;;;;;;15.30;8.43;;;18.70;99.90;;;;;;4958115;29;20477;-79
2023/05/28 08:46:01;;;;;;;16.33;8.80;;;18.80;99.90;;;;;;4954993;29;20470;-78
2023/05/28 08:48:42;;;;;;;15.10;10.10;;;18.90;99.90;;;;;;4957081;29;20464;-80
2023/05/28 08:51:12;;;;;;;18.70;10.90;;;19.10;99.90;;;;;;4956871;29;20447;-79
2023/05/28 08:53:47;;;;;;;19.97;10.67;;;19.10;99.90;;;;;;4957076;29;20541;-79
2023/05/28 08:56:22;;;;;;;18.97;10.20;;;19.20;99.90;;;;;;4955764;28;20474;-78
2023/05/28 08:58:52;;;;;;;12.33;8.57;;;19.30;99.90;;;;;;4954491;29;20964;-77
2023/05/28 09:01:21;;;;;;;15.73;9.57;;;19.30;99.90;;;;;;4955692;29;20439;-78
2023/05/28 09:04:00;;;;;;;15.27;8.40;;;19.40;99.90;;;;;;4954321;29;20886;-77
2023/05/28 09:06:38;;;;;;;14.93;8.90;;;19.50;99.90;;;;;;4954908;29;20493;-77
2023/05/28 09:09:11;;;;;;;13.90;9.17;;;19.50;99.90;;;;;;4954862;29;20512;-80
2023/05/28 09:11:45;;;;;;;14.43;8.17;;;19.70;99.90;;;;;;4954977;29;20537;-79
2023/05/28 09:14:18;;;;;;;16.37;7.97;;;19.80;99.90;;;;;;4955425;29;20481;-79
2023/05/28 09:16:49;;;;;;;15.40;8.77;;;19.90;99.90;;;;;;4955615;29;20470;-79
2023/05/28 09:19:22;;;;;;;12.87;9.80;;;19.90;99.90;;;;;;4956354;29;20443;-79
2023/05/28 09:21:56;;;;;;;11.63;8.53;;;20.00;99.90;;;;;;4955770;29;20447;-79
2023/05/28 09:24:30;;;;;;;15.90;8.43;;;20.10;99.90;;;;;;4956263;29;20442;-79
2023/05/28 09:27:19;;;;;;;24.63;10.20;;;20.20;99.90;;;;;;4956126;29;21002;-77
2023/05/28 09:29:50;;;;;;;17.37;10.07;;;20.30;99.90;;;;;;4954686;29;20474;-77
2023/05/28 09:32:20;;;;;;;15.97;7.83;;;20.40;99.90;;;;;;4956505;28;20427;-77
2023/05/28 09:34:50;;;;;;;12.70;7.70;;;20.50;99.90;;;;;;4955808;29;20470;-77
2023/05/28 09:37:19;;;;;;;12.70;8.67;;;20.60;99.90;;;;;;4955605;28;20471;-77
2023/05/28 09:39:47;;;;;;;15.90;8.20;;;20.60;99.90;;;;;;4957528;29;20455;-77
2023/05/28 09:42:17;;;;;;;13.77;6.63;;;20.70;99.90;;;;;;4958067;29;20450;-77
2023/05/28 09:44:45;;;;;;;10.80;6.93;;;20.70;99.90;;;;;;4958158;29;20451;-78
2023/05/28 09:47:15;;;;;;;12.20;7.70;;;20.80;99.90;;;;;;4959345;29;20474;-77
2023/05/28 09:49:45;;;;;;;13.30;7.80;;;20.80;99.90;;;;;;4958006;29;20607;-77
2023/05/28 09:52:19;;;;;;;12.27;7.50;;;20.90;99.90;;;;;;4957944;29;20454;-77
2023/05/28 09:54:51;;;;;;;16.03;7.80;;;21.00;99.90;;;;;;4958200;29;20501;-78
2023/05/28 09:57:24;;;;;;;16.90;9.87;;;21.10;99.90;;;;;;4958309;29;20485;-78
2023/05/28 09:59:55;;;;;;;12.93;6.83;;;21.10;99.90;;;;;;4958364;29;20963;-78
2023/05/28 10:02:43;;;;;;;11.47;7.50;;;21.20;99.90;;;;;;4957980;29;20516;-78
2023/05/28 10:05:16;;;;;;;13.30;7.30;;;21.30;99.90;;;;;;4959345;29;20919;-77
2023/05/28 10:07:49;;;;;;;14.83;7.13;;;21.30;99.90;;;;;;4958061;29;20453;-77
2023/05/28 10:10:18;;;;;;;14.00;7.83;;;21.40;99.90;;;;;;4957474;29;20470;-77
2023/05/28 10:12:47;;;;;;;11.80;6.60;;;21.50;99.90;;;;;;4959052;29;20505;-77
2023/05/28 10:15:15;;;;;;;13.43;7.90;;;21.60;99.90;;;;;;4959633;29;20449;-78
2023/05/28 10:17:45;;;;;;;12.17;7.00;;;21.70;99.90;;;;;;4958288;29;20457;-78
2023/05/28 10:20:14;;;;;;;13.40;7.50;;;21.70;99.90;;;;;;4958163;29;20514;-78
2023/05/28 10:22:43;;;;;;;14.87;6.60;;;21.80;99.90;;;;;;4958005;29;20476;-77
2023/05/28 10:25:11;;;;;;;12.70;6.43;;;21.80;99.90;;;;;;4957684;29;20868;-77
2023/05/28 10:27:45;;;;;;;12.37;6.70;;;21.90;99.90;;;;;;4957147;29;20856;-78
2023/05/28 10:30:30;;;;;;;13.63;7.00;;;22.00;99.90;;;;;;4956491;29;20462;-77
2023/05/28 10:33:00;;;;;;;12.53;8.00;;;22.00;99.90;;;;;;4957967;28;20427;-78
2023/05/28 10:35:28;;;;;;;15.27;8.00;;;22.10;99.90;;;;;;4957697;29;21070;-77
2023/05/28 10:38:07;;;;;;;11.73;6.70;;;22.10;99.90;;;;;;4956631;29;20882;-77
2023/05/28 10:40:36;;;;;;;13.83;7.00;;;22.10;99.90;;;;;;4956517;29;20443;-78
2023/05/28 10:43:04;;;;;;;16.20;7.83;;;22.20;99.90;;;;;;4956947;29;20455;-78
2023/05/28 10:45:36;;;;;;;13.70;6.83;;;22.10;99.90;;;;;;4956459;29;20564;-78
2023/05/28 10:48:06;;;;;;;12.67;7.40;;;22.20;99.90;;;;;;4957307;29;20455;-78
2023/05/28 10:51:00;;;;;;;12.23;7.63;;;22.20;99.90;;;;;;4957500;28;20456;-79
2023/05/28 10:53:29;;;;;;;12.33;7.17;;;22.30;99.90;;;;;;4956565;29;20446;-78
2023/05/28 10:55:57;;;;;;;12.03;7.30;;;22.30;99.90;;;;;;4957502;29;20463;-78
2023/05/28 10:58:27;;;;;;;13.10;6.97;;;22.30;99.90;;;;;;4956627;29;20458;-78
2023/05/28 11:01:04;;;;;;;11.07;7.30;;;22.30;99.90;;;;;;4956910;29;20446;-78
2023/05/28 11:03:45;;;;;;;11.17;7.40;;;22.30;99.80;;;;;;4957616;29;20427;-77
2023/05/28 11:06:15;;;;;;;10.00;6.47;;;22.30;99.70;;;;;;4957813;29;20838;-77
2023/05/28 11:08:45;;;;;;;11.03;6.13;;;22.30;99.80;;;;;;4956077;29;20490;-78
2023/05/28 11:11:15;;;;;;;13.63;7.70;;;22.30;99.80;;;;;;4960133;29;20542;-80
2023/05/28 11:13:47;;;;;;;14.70;8.47;;;22.30;99.80;;;;;;4959444;29;20478;-79
2023/05/28 11:16:17;;;;;;;15.03;7.27;;;22.40;99.60;;;;;;4958805;29;20483;-79
2023/05/28 11:19:04;;;;;;;12.20;6.93;;;22.40;99.50;;;;;;4957686;29;20438;-79
2023/05/28 11:21:32;;;;;;;11.23;6.90;;;22.50;99.40;;;;;;4959620;28;20804;-78
2023/05/28 11:24:03;;;;;;;11.53;6.80;;;22.50;99.20;;;;;;4956089;29;20510;-79
2023/05/28 11:26:32;;;;;;;9.93;7.20;;;22.50;99.00;;;;;;4956245;29;20481;-78
2023/05/28 11:29:02;;;;;;;10.30;5.80;;;22.50;98.60;;;;;;4957857;29;20438;-79
2023/05/28 11:31:40;;;;;;;9.90;5.23;;;22.50;98.40;;;;;;4957717;29;20459;-80
2023/05/28 11:34:10;;;;;;;9.00;5.43;;;22.50;98.30;;;;;;4958169;29;20441;-78
2023/05/28 11:36:40;;;;;;;15.17;6.73;;;22.60;98.30;;;;;;4958678;29;20549;-79
2023/05/28 11:39:08;;;;;;;10.90;6.20;;;22.60;98.10;;;;;;4958223;29;20489;-80
2023/05/28 11:41:37;;;;;;;10.00;6.47;;;22.60;97.90;;;;;;4959020;29;20793;-79
2023/05/28 11:44:20;;;;;;;12.83;6.40;;;22.60;97.90;;;;;;4959964;29;20439;-80
2023/05/28 11:46:51;;;;;;;9.43;5.67;;;22.70;97.60;;;;;;4955910;29;20481;-78
2023/05/28 11:49:21;;;;;;;10.57;5.73;;;22.70;97.40;;;;;;4956974;29;20450;-80
2023/05/28 11:51:52;;;;;;;10.27;5.70;;;22.80;97.20;;;;;;4955320;29;20561;-79
2023/05/28 11:54:22;;;;;;;8.13;4.97;;;22.80;97.20;;;;;;4956054;29;20541;-78
2023/05/28 11:56:50;;;;;;;8.97;5.60;;;22.80;97.00;;;;;;4956534;29;20466;-78
2023/05/28 11:59:25;;;;;;;10.70;5.40;;;22.90;96.90;;;;;;4956684;29;20442;-78
2023/05/28 12:01:54;;;;;;;9.03;4.50;;;22.90;96.50;;;;;;4959553;28;20427;-79
2023/05/28 12:04:24;;;;;;;8.93;4.90;;;22.90;96.50;;;;;;4957260;29;20514;-79
2023/05/28 12:06:54;;;;;;;9.60;5.77;;;23.00;96.50;;;;;;4958152;29;20470;-80
2023/05/28 12:09:23;;;;;;;9.47;4.47;;;23.00;96.70;;;;;;4960232;29;20529;-79
2023/05/28 12:12:10;;;;;;;8.37;4.47;;;23.00;96.00;;;;;;4956130;29;20474;-78
2023/05/28 12:14:39;;;;;;;10.90;5.40;;;23.10;95.70;;;;;;4955540;29;20433;-78
2023/05/28 12:17:10;;;;;;;9.57;5.57;;;23.10;95.70;;;;;;4958170;29;20482;-79
2023/05/28 12:19:40;;;;;;;8.57;5.07;;;23.10;95.40;;;;;;4960855;29;20458;-80
2023/05/28 12:22:18;;;;;;;9.37;4.43;;;23.10;95.30;;;;;;4959605;29;20457;-80
2023/05/28 12:24:51;;;;;;;9.40;5.00;;;23.20;95.20;;;;;;4961193;29;20450;-82
2023/05/28 12:27:19;;;;;;;7.97;4.73;;;23.20;94.90;;;;;;4960366;29;20490;-81
2023/05/28 12:29:48;;;;;;;9.03;4.97;;;23.20;94.70;;;;;;4959181;29;20459;-79
2023/05/28 12:32:16;;;;;;;7.90;4.60;;;23.20;94.60;;;;;;4958850;29;20466;-79
2023/05/28 12:34:46;;;;;;;13.50;6.23;;;23.20;94.40;;;;;;4959713;29;20856;-80
2023/05/28 12:37:14;;;;;;;8.43;4.90;;;23.30;94.20;;;;;;4959239;29;20473;-81
2023/05/28 12:39:42;;;;;;;8.27;5.33;;;23.30;93.80;;;;;;4958505;29;20662;-80
2023/05/28 12:42:11;;;;;;;6.40;4.40;;;23.30;93.40;;;;;;4959408;29;20439;-81
2023/05/28 12:44:39;;;;;;;7.83;4.77;;;23.30;93.20;;;;;;4957528;29;20446;-78
2023/05/28 12:47:07;;;;;;;8.50;5.63;;;23.20;93.00;;;;;;4955648;29;20577;-80
2023/05/28 12:49:36;;;;;;;10.17;6.10;;;23.30;92.90;;;;;;4956422;29;20473;-82
2023/05/28 12:52:08;;;;;;;6.73;4.90;;;23.20;92.80;;;;;;4958475;29;21002;-81